Time;durP1;ratioP1;P1;durP2;ratioP2;P2;SDS_P1;SDS_P2;PMS_P1;PMS_P2;Temp;Humidity;BMP_temperature;BMP_pressure;BME280_temperature;BME280_humidity;BME280_pressure;Samples;Min_cycle;Max_cycle;Signal;HPM_P1;HPM_P2
2021/05/12 00:00:00;;;;;;;1.80;0.28;;;;;;;;;;5065265;28;20040;-79
2021/05/12 00:02:26;;;;;;;0.25;0.25;;;;;;;;;;5080971;28;20025;-78
2021/05/12 00:04:53;;;;;;;0.32;0.32;;;;;;;;;;5081863;28;20016;-78
2021/05/12 00:07:19;;;;;;;0.38;0.38;;;;;;;;;;5076435;28;20190;-77
2021/05/12 00:09:45;;;;;;;0.60;0.30;;;;;;;;;;5076210;28;20032;-77
2021/05/12 00:12:11;;;;;;;1.27;0.28;;;;;;;;;;5077117;28;20025;-78
2021/05/12 00:14:37;;;;;;;0.20;0.20;;;;;;;;;;5077449;28;20468;-76
2021/05/12 00:17:04;;;;;;;0.30;0.30;;;;;;;;;;5092158;28;20136;-77
2021/05/12 00:19:32;;;;;;;0.20;0.20;;;;;;;;;;5084583;28;20472;-79
2021/05/12 00:22:17;;;;;;;0.30;0.30;;;;;;;;;;5075578;28;20463;-78
2021/05/12 00:24:43;;;;;;;1.48;0.25;;;;;;;;;;5086877;28;20032;-78
2021/05/12 00:27:09;;;;;;;0.17;0.17;;;;;;;;;;5091853;28;20035;-79
2021/05/12 00:29:35;;;;;;;0.40;0.20;;;;;;;;;;5074706;28;20063;-78
2021/05/12 00:32:01;;;;;;;3.60;0.38;;;;;;;;;;5057600;28;20069;-78
2021/05/12 00:34:27;;;;;;;0.30;0.30;;;;;;;;;;5058900;28;20397;-77
2021/05/12 00:36:53;;;;;;;0.30;0.30;;;;;;;;;;5073513;28;20135;-78
2021/05/12 00:39:19;;;;;;;0.40;0.30;;;;;;;;;;5070536;28;20033;-77
2021/05/12 00:41:45;;;;;;;0.20;0.20;;;;;;;;;;5083173;28;20024;-79
2021/05/12 00:44:19;;;;;;;0.43;0.22;;;;;;;;;;5081431;28;20028;-78
2021/05/12 00:46:48;;;;;;;0.47;0.20;;;;;;;;;;5079338;28;20070;-78
2021/05/12 00:49:15;;;;;;;0.52;0.30;;;;;;;;;;5080420;28;20138;-78
2021/05/12 00:51:42;;;;;;;0.10;0.10;;;;;;;;;;5079300;28;20092;-79
2021/05/12 00:54:08;;;;;;;1.50;0.25;;;;;;;;;;5080668;28;20031;-79
2021/05/12 00:56:35;;;;;;;0.17;0.17;;;;;;;;;;5079832;28;20036;-78
2021/05/12 00:59:01;;;;;;;2.03;0.30;;;;;;;;;;5076343;28;20039;-79
2021/05/12 01:01:28;;;;;;;0.10;0.10;;;;;;;;;;5076069;28;20029;-77
2021/05/12 01:03:54;;;;;;;0.38;0.10;;;;;;;;;;5077184;28;20341;-78
2021/05/12 01:06:24;;;;;;;0.55;0.55;;;;;;;;;;5078119;28;20017;-78
2021/05/12 01:08:51;;;;;;;0.10;0.10;;;;;;;;;;5072453;28;20093;-79
2021/05/12 01:11:17;;;;;;;0.40;0.20;;;;;;;;;;5097052;28;20162;-78
2021/05/12 01:13:43;;;;;;;0.10;0.08;;;;;;;;;;5079740;28;20167;-79
2021/05/12 01:16:11;;;;;;;0.10;0.10;;;;;;;;;;5080610;28;20480;-79
2021/05/12 01:18:37;;;;;;;0.63;0.20;;;;;;;;;;5079751;28;20082;-79
2021/05/12 01:21:04;;;;;;;0.10;0.10;;;;;;;;;;5079696;28;20045;-78
2021/05/12 01:23:32;;;;;;;0.10;0.10;;;;;;;;;;5079978;28;20074;-79
2021/05/12 01:25:59;;;;;;;0.20;0.20;;;;;;;;;;5083816;28;20035;-79
2021/05/12 01:28:26;;;;;;;1.45;0.20;;;;;;;;;;5070655;28;20056;-79
2021/05/12 01:30:58;;;;;;;0.10;0.10;;;;;;;;;;5058060;28;20029;-77
2021/05/12 01:33:24;;;;;;;0.20;0.10;;;;;;;;;;5056035;28;20032;-78
2021/05/12 01:35:50;;;;;;;0.80;0.20;;;;;;;;;;5068622;28;20093;-79
2021/05/12 01:38:16;;;;;;;0.00;0.00;;;;;;;;;;5086489;28;20510;-79
2021/05/12 01:40:43;;;;;;;0.10;0.10;;;;;;;;;;5085538;28;20047;-79
2021/05/12 01:43:09;;;;;;;0.25;0.10;;;;;;;;;;5085591;28;20078;-79
2021/05/12 01:45:35;;;;;;;1.70;0.17;;;;;;;;;;5081688;28;20020;-79
2021/05/12 01:48:04;;;;;;;0.20;0.10;;;;;;;;;;5074255;28;20025;-78
2021/05/12 01:50:30;;;;;;;1.00;0.20;;;;;;;;;;5058866;28;20078;-78
2021/05/12 01:52:56;;;;;;;0.60;0.00;;;;;;;;;;5055287;28;20025;-79
2021/05/12 01:55:22;;;;;;;1.25;0.30;;;;;;;;;;5063832;28;20120;-78
2021/05/12 01:57:48;;;;;;;1.05;0.28;;;;;;;;;;5065683;28;20029;-78
2021/05/12 02:00:18;;;;;;;0.10;0.10;;;;;;;;;;5081039;28;20036;-78
2021/05/12 02:02:44;;;;;;;1.20;0.20;;;;;;;;;;5080122;28;20404;-78
2021/05/12 02:05:10;;;;;;;0.10;0.10;;;;;;;;;;5080064;28;20337;-78
2021/05/12 02:07:36;;;;;;;0.65;0.30;;;;;;;;;;5075576;28;20017;-79
2021/05/12 02:10:02;;;;;;;0.10;0.10;;;;;;;;;;5080243;28;20036;-78
2021/05/12 02:12:28;;;;;;;0.08;0.08;;;;;;;;;;5079974;28;20141;-79
2021/05/12 02:14:54;;;;;;;0.40;0.10;;;;;;;;;;5076037;28;20032;-79
2021/05/12 02:17:20;;;;;;;0.28;0.20;;;;;;;;;;5079730;28;20406;-79
2021/05/12 02:19:47;;;;;;;0.30;0.20;;;;;;;;;;5078082;28;20025;-78
2021/05/12 02:22:14;;;;;;;0.20;0.20;;;;;;;;;;5080031;28;20511;-80
2021/05/12 02:24:40;;;;;;;0.55;0.13;;;;;;;;;;5082431;28;20036;-79
2021/05/12 02:27:06;;;;;;;0.10;0.10;;;;;;;;;;5086472;28;20020;-78
2021/05/12 02:29:32;;;;;;;0.20;0.10;;;;;;;;;;5082932;28;20047;-78
2021/05/12 02:31:58;;;;;;;0.10;0.10;;;;;;;;;;5080767;28;20024;-79
2021/05/12 02:34:24;;;;;;;0.20;0.20;;;;;;;;;;5081319;28;20176;-79
2021/05/12 02:36:50;;;;;;;0.28;0.10;;;;;;;;;;5076851;28;20056;-78
2021/05/12 02:39:16;;;;;;;0.38;0.10;;;;;;;;;;5083247;28;20035;-79
2021/05/12 02:41:42;;;;;;;0.32;0.30;;;;;;;;;;5085662;28;20047;-79
2021/05/12 02:44:08;;;;;;;0.28;0.20;;;;;;;;;;5086004;28;20088;-78
2021/05/12 02:46:34;;;;;;;0.50;0.10;;;;;;;;;;5085431;28;20028;-78
2021/05/12 02:49:01;;;;;;;0.28;0.17;;;;;;;;;;5084366;28;20033;-77
2021/05/12 02:51:27;;;;;;;0.13;0.10;;;;;;;;;;5080090;28;20040;-80
2021/05/12 02:53:53;;;;;;;0.47;0.17;;;;;;;;;;5078567;28;20033;-79
2021/05/12 02:56:19;;;;;;;1.13;0.20;;;;;;;;;;5077217;28;20020;-79
2021/05/12 02:58:45;;;;;;;0.17;0.10;;;;;;;;;;5077010;28;20033;-78
2021/05/12 03:01:11;;;;;;;0.10;0.10;;;;;;;;;;5078089;28;20445;-79
2021/05/12 03:03:37;;;;;;;0.10;0.10;;;;;;;;;;5079731;28;20368;-80
2021/05/12 03:06:04;;;;;;;0.10;0.10;;;;;;;;;;5078613;28;20060;-79
2021/05/12 03:08:30;;;;;;;0.20;0.20;;;;;;;;;;5078484;28;20025;-78
2021/05/12 03:10:56;;;;;;;0.38;0.30;;;;;;;;;;5075110;28;20360;-78
2021/05/12 03:13:22;;;;;;;1.63;0.30;;;;;;;;;;5076536;28;20028;-77
2021/05/12 03:15:48;;;;;;;0.73;0.15;;;;;;;;;;5074949;28;20123;-79
2021/05/12 03:18:15;;;;;;;0.30;0.20;;;;;;;;;;5080271;28;20028;-80
2021/05/12 03:20:41;;;;;;;0.10;0.10;;;;;;;;;;5070403;28;20089;-79
2021/05/12 03:23:07;;;;;;;0.10;0.10;;;;;;;;;;5068440;28;20433;-78
2021/05/12 03:25:33;;;;;;;0.50;0.20;;;;;;;;;;5076886;28;20036;-79
2021/05/12 03:28:00;;;;;;;0.00;0.00;;;;;;;;;;5079487;28;20038;-78
2021/05/12 03:30:33;;;;;;;1.15;0.17;;;;;;;;;;5066376;28;20422;-78
2021/05/12 03:33:03;;;;;;;0.10;0.10;;;;;;;;;;5056819;28;20031;-78
2021/05/12 03:35:32;;;;;;;0.20;0.20;;;;;;;;;;5057282;28;20029;-77
2021/05/12 03:37:59;;;;;;;0.17;0.10;;;;;;;;;;5084941;28;20025;-78
2021/05/12 03:40:25;;;;;;;0.20;0.10;;;;;;;;;;5080153;28;20025;-79
2021/05/12 03:42:51;;;;;;;0.00;0.00;;;;;;;;;;5079287;28;20024;-79
2021/05/12 03:45:18;;;;;;;0.10;0.10;;;;;;;;;;5076626;28;20441;-78
2021/05/12 03:47:44;;;;;;;0.38;0.08;;;;;;;;;;5077603;28;20095;-78
2021/05/12 03:50:11;;;;;;;1.55;0.10;;;;;;;;;;5076011;28;20028;-78
2021/05/12 03:52:37;;;;;;;0.65;0.45;;;;;;;;;;5075474;28;20450;-79
2021/05/12 03:55:07;;;;;;;0.15;0.00;;;;;;;;;;5074788;28;20095;-80
2021/05/12 03:57:33;;;;;;;1.02;0.20;;;;;;;;;;5074756;28;20021;-80
2021/05/12 03:59:59;;;;;;;0.13;0.13;;;;;;;;;;5074070;28;20052;-79
2021/05/12 04:02:25;;;;;;;0.52;0.30;;;;;;;;;;5074652;28;20730;-80
2021/05/12 04:04:51;;;;;;;0.52;0.20;;;;;;;;;;5075033;28;20194;-80
2021/05/12 04:07:17;;;;;;;0.20;0.20;;;;;;;;;;5065387;28;20071;-80
2021/05/12 04:09:44;;;;;;;0.38;0.15;;;;;;;;;;5066582;28;20043;-79
2021/05/12 04:12:10;;;;;;;0.40;0.03;;;;;;;;;;5071372;28;20033;-79
2021/05/12 04:14:36;;;;;;;0.10;0.10;;;;;;;;;;5057447;28;20409;-80
2021/05/12 04:17:02;;;;;;;0.43;0.10;;;;;;;;;;5058394;28;20468;-80
2021/05/12 04:19:28;;;;;;;0.30;0.20;;;;;;;;;;5061558;28;20040;-79
2021/05/12 04:21:54;;;;;;;0.10;0.10;;;;;;;;;;5076904;28;20028;-79
2021/05/12 04:24:21;;;;;;;0.22;0.20;;;;;;;;;;5077378;28;20032;-79
2021/05/12 04:26:47;;;;;;;0.10;0.10;;;;;;;;;;5078111;28;20098;-78
2021/05/12 04:29:13;;;;;;;0.10;0.10;;;;;;;;;;5077445;28;20028;-78
2021/05/12 04:31:39;;;;;;;0.80;0.20;;;;;;;;;;5063118;28;20028;-78
2021/05/12 04:34:06;;;;;;;0.50;0.20;;;;;;;;;;5073791;28;20029;-78
2021/05/12 04:36:32;;;;;;;0.35;0.20;;;;;;;;;;5081534;28;20051;-78
2021/05/12 04:38:58;;;;;;;0.20;0.10;;;;;;;;;;5072204;28;20389;-78
2021/05/12 04:41:24;;;;;;;0.55;0.20;;;;;;;;;;5075951;28;20049;-78
2021/05/12 04:43:50;;;;;;;0.40;0.20;;;;;;;;;;5058701;28;20036;-78
2021/05/12 04:46:16;;;;;;;0.20;0.20;;;;;;;;;;5058145;28;20096;-78
2021/05/12 04:48:42;;;;;;;1.33;0.20;;;;;;;;;;5073221;28;20091;-79
2021/05/12 04:51:08;;;;;;;0.30;0.30;;;;;;;;;;5073479;28;20365;-79
2021/05/12 04:53:34;;;;;;;0.35;0.30;;;;;;;;;;5076180;28;20044;-79
2021/05/12 04:56:00;;;;;;;0.30;0.20;;;;;;;;;;5078025;28;20075;-78
2021/05/12 04:58:26;;;;;;;0.60;0.20;;;;;;;;;;5077002;28;20074;-78
2021/05/12 05:00:52;;;;;;;0.55;0.30;;;;;;;;;;5061571;28;20029;-78
2021/05/12 05:03:19;;;;;;;1.40;0.30;;;;;;;;;;5062087;28;20036;-78
2021/05/12 05:05:45;;;;;;;0.32;0.22;;;;;;;;;;5072329;28;20021;-78
2021/05/12 05:08:14;;;;;;;0.20;0.20;;;;;;;;;;5073425;28;20084;-78
2021/05/12 05:10:40;;;;;;;0.40;0.25;;;;;;;;;;5093686;28;20024;-78
2021/05/12 05:13:06;;;;;;;1.13;0.10;;;;;;;;;;5094481;28;20024;-78
2021/05/12 05:15:32;;;;;;;1.90;0.25;;;;;;;;;;5082368;28;20021;-79
2021/05/12 05:17:59;;;;;;;0.82;0.20;;;;;;;;;;5078134;28;20124;-79
2021/05/12 05:20:27;;;;;;;2.08;0.20;;;;;;;;;;5080130;28;20396;-78
2021/05/12 05:22:53;;;;;;;0.15;0.15;;;;;;;;;;5081207;28;20082;-80
2021/05/12 05:25:20;;;;;;;0.30;0.20;;;;;;;;;;5065079;28;20029;-80
2021/05/12 05:27:46;;;;;;;0.10;0.10;;;;;;;;;;5076968;28;20024;-79
2021/05/12 05:30:13;;;;;;;0.47;0.25;;;;;;;;;;5071566;28;20096;-79
2021/05/12 05:32:39;;;;;;;0.20;0.20;;;;;;;;;;5060104;28;20028;-79
2021/05/12 05:35:06;;;;;;;0.50;0.50;;;;;;;;;;5061146;28;20044;-79
2021/05/12 05:37:32;;;;;;;0.38;0.10;;;;;;;;;;5078057;28;20047;-79
2021/05/12 05:39:59;;;;;;;0.93;0.40;;;;;;;;;;5078528;28;20040;-81
2021/05/12 05:42:25;;;;;;;0.30;0.17;;;;;;;;;;5078411;28;20027;-79
2021/05/12 05:44:51;;;;;;;0.10;0.10;;;;;;;;;;5071575;28;20020;-80
2021/05/12 05:47:17;;;;;;;0.70;0.20;;;;;;;;;;5064073;28;20076;-78
2021/05/12 05:49:44;;;;;;;0.25;0.25;;;;;;;;;;5080176;28;20020;-79
2021/05/12 05:52:10;;;;;;;1.33;0.22;;;;;;;;;;5076508;28;20151;-78
2021/05/12 05:54:36;;;;;;;0.63;0.40;;;;;;;;;;5072564;28;20039;-78
2021/05/12 05:57:05;;;;;;;0.68;0.38;;;;;;;;;;5076980;28;20020;-78
2021/05/12 05:59:32;;;;;;;0.30;0.30;;;;;;;;;;5077161;28;20143;-78
2021/05/12 06:01:58;;;;;;;0.40;0.20;;;;;;;;;;5078177;28;20032;-78
2021/05/12 06:04:25;;;;;;;0.77;0.20;;;;;;;;;;5077028;28;20172;-78
2021/05/12 06:06:51;;;;;;;0.22;0.20;;;;;;;;;;5076330;28;20521;-79
2021/05/12 06:09:19;;;;;;;0.38;0.20;;;;;;;;;;5076317;28;20032;-78
2021/05/12 06:11:45;;;;;;;0.98;0.45;;;;;;;;;;5076769;28;20028;-78
2021/05/12 06:14:11;;;;;;;0.28;0.15;;;;;;;;;;5075935;28;20028;-79
2021/05/12 06:16:37;;;;;;;0.70;0.30;;;;;;;;;;5071909;28;20020;-78
2021/05/12 06:19:03;;;;;;;0.38;0.20;;;;;;;;;;5075883;28;20082;-79
2021/05/12 06:21:29;;;;;;;1.10;0.40;;;;;;;;;;5076496;28;20120;-79
2021/05/12 06:23:55;;;;;;;0.47;0.20;;;;;;;;;;5060053;28;20124;-78
2021/05/12 06:26:22;;;;;;;0.73;0.30;;;;;;;;;;5077381;28;20024;-78
2021/05/12 06:28:48;;;;;;;0.45;0.20;;;;;;;;;;5094887;28;20029;-79
2021/05/12 06:31:15;;;;;;;3.40;0.50;;;;;;;;;;5079818;28;20034;-78
2021/05/12 06:33:45;;;;;;;1.60;0.40;;;;;;;;;;5079305;28;20017;-79
2021/05/12 06:36:11;;;;;;;1.42;0.45;;;;;;;;;;5081858;28;20081;-79
2021/05/12 06:38:37;;;;;;;0.17;0.17;;;;;;;;;;5080585;28;20029;-78
2021/05/12 06:41:03;;;;;;;0.30;0.30;;;;;;;;;;5064199;28;20462;-79
2021/05/12 06:43:30;;;;;;;0.25;0.10;;;;;;;;;;5061472;28;20009;-79
2021/05/12 06:45:56;;;;;;;0.80;0.22;;;;;;;;;;5060352;28;20116;-80
2021/05/12 06:48:22;;;;;;;0.30;0.30;;;;;;;;;;5060878;28;20098;-80
2021/05/12 06:50:49;;;;;;;1.20;0.35;;;;;;;;;;5072288;28;20078;-80
2021/05/12 06:53:24;;;;;;;0.25;0.20;;;;;;;;;;5066214;28;20028;-78
2021/05/12 06:55:50;;;;;;;0.20;0.20;;;;;;;;;;5073789;28;20052;-79
2021/05/12 06:58:16;;;;;;;0.45;0.45;;;;;;;;;;5077000;28;20032;-78
2021/05/12 07:00:43;;;;;;;0.80;0.45;;;;;;;;;;5076994;28;20104;-78
2021/05/12 07:03:09;;;;;;;0.88;0.30;;;;;;;;;;5077091;28;20032;-80
2021/05/12 07:05:35;;;;;;;0.75;0.30;;;;;;;;;;5056426;28;20029;-80
2021/05/12 07:08:01;;;;;;;1.30;1.00;;;;;;;;;;5053878;28;20199;-80
2021/05/12 07:10:27;;;;;;;0.38;0.38;;;;;;;;;;5056052;28;20021;-79
2021/05/12 07:12:55;;;;;;;1.13;0.38;;;;;;;;;;5056765;28;20025;-79
2021/05/12 07:15:21;;;;;;;1.55;0.50;;;;;;;;;;5058779;28;20031;-79
2021/05/12 07:17:49;;;;;;;0.40;0.40;;;;;;;;;;5060215;28;20025;-80
2021/05/12 07:20:15;;;;;;;0.40;0.30;;;;;;;;;;5066548;28;20499;-79
2021/05/12 07:22:41;;;;;;;1.40;0.50;;;;;;;;;;5073851;28;20090;-79
2021/05/12 07:25:08;;;;;;;1.48;0.60;;;;;;;;;;5069082;28;20033;-80
2021/05/12 07:27:34;;;;;;;0.43;0.43;;;;;;;;;;5080572;28;20455;-77
2021/05/12 07:30:00;;;;;;;1.73;0.73;;;;;;;;;;5078831;28;20029;-78
2021/05/12 07:32:26;;;;;;;0.50;0.50;;;;;;;;;;5078517;28;20096;-79
2021/05/12 07:34:52;;;;;;;2.28;0.70;;;;;;;;;;5077486;28;20033;-78
2021/05/12 07:37:19;;;;;;;0.70;0.70;;;;;;;;;;5077997;28;20024;-78
2021/05/12 07:39:45;;;;;;;1.10;0.68;;;;;;;;;;5075747;28;20028;-80
2021/05/12 07:42:13;;;;;;;2.65;0.60;;;;;;;;;;5075950;28;20481;-79
2021/05/12 07:44:39;;;;;;;0.60;0.52;;;;;;;;;;5079557;28;20085;-78
2021/05/12 07:47:05;;;;;;;1.00;0.57;;;;;;;;;;5076710;28;20020;-79
2021/05/12 07:49:32;;;;;;;1.23;0.60;;;;;;;;;;5059601;28;20033;-79
2021/05/12 07:51:58;;;;;;;0.95;0.50;;;;;;;;;;5078781;28;20024;-79
2021/05/12 07:54:24;;;;;;;0.55;0.40;;;;;;;;;;5073975;28;20035;-79
2021/05/12 07:56:50;;;;;;;1.33;0.60;;;;;;;;;;5065208;28;20045;-79
2021/05/12 07:59:16;;;;;;;0.70;0.70;;;;;;;;;;5077123;28;20036;-78
2021/05/12 08:01:46;;;;;;;1.23;0.80;;;;;;;;;;5084198;28;20091;-77
2021/05/12 08:04:12;;;;;;;0.63;0.60;;;;;;;;;;5084258;28;20082;-77
2021/05/12 08:06:38;;;;;;;0.90;0.45;;;;;;;;;;5080153;28;20085;-78
2021/05/12 08:09:06;;;;;;;1.60;0.57;;;;;;;;;;5079246;28;20082;-79
2021/05/12 08:11:32;;;;;;;0.90;0.60;;;;;;;;;;5077908;28;20026;-79
2021/05/12 08:13:58;;;;;;;1.73;0.80;;;;;;;;;;5064656;28;20024;-80
2021/05/12 08:16:25;;;;;;;3.15;0.63;;;;;;;;;;5078347;28;20039;-80
2021/05/12 08:18:51;;;;;;;1.83;1.00;;;;;;;;;;5079000;28;20020;-79
2021/05/12 08:21:18;;;;;;;0.40;0.40;;;;;;;;;;5078625;28;20021;-78
2021/05/12 08:23:44;;;;;;;0.88;0.50;;;;;;;;;;5080697;28;20032;-80
2021/05/12 08:26:10;;;;;;;2.30;0.50;;;;;;;;;;5097021;28;20048;-80
2021/05/12 08:28:41;;;;;;;0.40;0.40;;;;;;;;;;5096781;28;20013;-80
2021/05/12 08:31:07;;;;;;;0.82;0.60;;;;;;;;;;5097804;28;20024;-80
2021/05/12 08:33:35;;;;;;;0.40;0.40;;;;;;;;;;5090862;28;20477;-80
2021/05/12 08:36:01;;;;;;;1.40;0.75;;;;;;;;;;5080335;28;20024;-81
2021/05/12 08:38:27;;;;;;;2.05;0.77;;;;;;;;;;5080403;28;20025;-80
2021/05/12 08:40:56;;;;;;;2.15;0.90;;;;;;;;;;5080783;28;20112;-77
2021/05/12 08:43:24;;;;;;;0.98;0.85;;;;;;;;;;5081045;28;20020;-78
2021/05/12 08:45:51;;;;;;;0.65;0.55;;;;;;;;;;5081506;28;20046;-81
2021/05/12 08:48:18;;;;;;;1.48;0.52;;;;;;;;;;5091211;28;20050;-79
2021/05/12 08:50:45;;;;;;;1.02;0.90;;;;;;;;;;5082617;28;20020;-81
2021/05/12 08:53:11;;;;;;;1.67;1.00;;;;;;;;;;5068691;28;20115;-80
2021/05/12 08:55:38;;;;;;;2.25;1.05;;;;;;;;;;5077516;28;20389;-80
2021/05/12 08:58:04;;;;;;;1.88;0.93;;;;;;;;;;5078943;28;20036;-80
2021/05/12 09:00:30;;;;;;;1.27;0.95;;;;;;;;;;5079173;28;20032;-80
2021/05/12 09:02:59;;;;;;;1.48;0.75;;;;;;;;;;5077297;28;20068;-80
2021/05/12 09:05:27;;;;;;;1.27;0.60;;;;;;;;;;5076749;28;20020;-81
2021/05/12 09:07:53;;;;;;;1.00;0.70;;;;;;;;;;5066272;28;20032;-79
2021/05/12 09:10:19;;;;;;;1.23;0.88;;;;;;;;;;5063655;28;20024;-80
2021/05/12 09:12:47;;;;;;;1.00;0.80;;;;;;;;;;5074934;28;20024;-79
2021/05/12 09:15:16;;;;;;;1.10;1.00;;;;;;;;;;5076496;28;20042;-80
2021/05/12 09:17:43;;;;;;;2.47;1.02;;;;;;;;;;5074514;28;20032;-79
2021/05/12 09:20:22;;;;;;;2.05;0.65;;;;;;;;;;5076764;28;20350;-80
2021/05/12 09:22:49;;;;;;;0.60;0.60;;;;;;;;;;5070771;28;20020;-79
2021/05/12 09:25:18;;;;;;;0.43;0.43;;;;;;;;;;5075067;28;20035;-78
2021/05/12 09:27:51;;;;;;;0.45;0.40;;;;;;;;;;5082315;28;20080;-79
2021/05/12 09:30:21;;;;;;;0.55;0.30;;;;;;;;;;5067153;28;20469;-78
2021/05/12 09:32:47;;;;;;;0.50;0.50;;;;;;;;;;5056902;28;20076;-78
2021/05/12 09:35:14;;;;;;;0.70;0.55;;;;;;;;;;5063393;28;20417;-77
2021/05/12 09:37:42;;;;;;;0.43;0.40;;;;;;;;;;5070497;28;20012;-78
2021/05/12 09:40:18;;;;;;;0.38;0.20;;;;;;;;;;5075231;28;20086;-78
2021/05/12 09:42:45;;;;;;;0.57;0.28;;;;;;;;;;5062479;28;20033;-78
2021/05/12 09:45:21;;;;;;;0.65;0.35;;;;;;;;;;5068601;28;20047;-78
2021/05/12 09:47:47;;;;;;;1.63;0.15;;;;;;;;;;5073551;28;20032;-77
2021/05/12 09:50:22;;;;;;;0.80;0.40;;;;;;;;;;5070123;28;20020;-78
2021/05/12 09:52:52;;;;;;;1.65;0.40;;;;;;;;;;5098784;28;20039;-78
2021/05/12 09:55:19;;;;;;;1.70;0.30;;;;;;;;;;5069148;28;20035;-78
2021/05/12 09:58:17;;;;;;;1.17;0.35;;;;;;;;;;5067121;28;20032;-78
2021/05/12 10:00:45;;;;;;;0.57;0.30;;;;;;;;;;5064444;28;20045;-79
2021/05/12 10:03:12;;;;;;;1.23;0.30;;;;;;;;;;5064699;28;20120;-78
2021/05/12 10:05:57;;;;;;;0.40;0.40;;;;;;;;;;5074414;28;20055;-78
2021/05/12 10:08:41;;;;;;;0.20;0.20;;;;;;;;;;5086520;28;20028;-78
2021/05/12 10:11:10;;;;;;;0.60;0.30;;;;;;;;;;5073889;28;20035;-79
2021/05/12 10:13:36;;;;;;;0.82;0.43;;;;;;;;;;5080964;28;20469;-78
2021/05/12 10:16:05;;;;;;;0.93;0.50;;;;;;;;;;5078093;28;20036;-79
2021/05/12 10:18:31;;;;;;;2.90;0.47;;;;;;;;;;5070587;28;20078;-79
2021/05/12 10:20:58;;;;;;;0.80;0.70;;;;;;;;;;5078676;28;20021;-79
2021/05/12 10:23:25;;;;;;;0.52;0.52;;;;;;;;;;5083043;28;20017;-79
2021/05/12 10:25:52;;;;;;;0.20;0.20;;;;;;;;;;5089686;28;20035;-79
2021/05/12 10:28:18;;;;;;;0.50;0.50;;;;;;;;;;5090250;28;20025;-79
2021/05/12 10:30:48;;;;;;;1.75;0.50;;;;;;;;;;5090010;28;20051;-79
2021/05/12 10:33:15;;;;;;;1.88;0.70;;;;;;;;;;5091045;28;20531;-79
2021/05/12 10:35:42;;;;;;;0.40;0.40;;;;;;;;;;5090892;28;20030;-79
2021/05/12 10:38:10;;;;;;;0.45;0.25;;;;;;;;;;5065482;28;20029;-77
2021/05/12 10:40:41;;;;;;;0.88;0.50;;;;;;;;;;5065186;28;20027;-77
2021/05/12 10:45:59;;;;;;;2.67;1.10;;;;;;;;;;5077245;28;20055;-77
2021/05/12 10:48:41;;;;;;;2.10;0.70;;;;;;;;;;5073030;28;20327;-78
2021/05/12 10:51:23;;;;;;;1.00;0.75;;;;;;;;;;5087706;28;20069;-78
2021/05/12 10:53:53;;;;;;;0.60;0.40;;;;;;;;;;5089503;28;20024;-79
2021/05/12 10:56:20;;;;;;;1.30;0.70;;;;;;;;;;5086682;28;20036;-78
2021/05/12 10:58:56;;;;;;;0.28;0.22;;;;;;;;;;5083582;28;20088;-78
2021/05/12 11:01:22;;;;;;;0.75;0.50;;;;;;;;;;5085467;28;20370;-78
2021/05/12 11:03:54;;;;;;;0.52;0.50;;;;;;;;;;5081805;28;20021;-78
2021/05/12 11:06:26;;;;;;;0.45;0.45;;;;;;;;;;5071321;28;20106;-78
2021/05/12 11:09:02;;;;;;;0.40;0.40;;;;;;;;;;5077460;28;20035;-79
2021/05/12 11:11:28;;;;;;;0.60;0.60;;;;;;;;;;5090491;28;20009;-79
2021/05/12 11:14:13;;;;;;;0.90;0.50;;;;;;;;;;5095290;28;20040;-79
2021/05/12 11:16:59;;;;;;;1.38;0.30;;;;;;;;;;5106959;28;20108;-78
2021/05/12 11:19:34;;;;;;;0.60;0.45;;;;;;;;;;5100248;28;20027;-79
2021/05/12 11:22:20;;;;;;;0.60;0.50;;;;;;;;;;5093696;28;20072;-78
2021/05/12 11:24:52;;;;;;;0.30;0.30;;;;;;;;;;5093066;28;20020;-78
2021/05/12 11:27:28;;;;;;;0.32;0.32;;;;;;;;;;5092253;28;20021;-79
2021/05/12 11:32:24;;;;;;;1.10;0.50;;;;;;;;;;5091103;28;20157;-78
2021/05/12 11:34:50;;;;;;;1.13;0.50;;;;;;;;;;5093343;28;20039;-79
2021/05/12 11:37:21;;;;;;;0.52;0.50;;;;;;;;;;5093182;28;20070;-80
2021/05/12 11:39:48;;;;;;;2.28;0.60;;;;;;;;;;5092342;28;20035;-78
2021/05/12 11:42:19;;;;;;;0.95;0.57;;;;;;;;;;5092092;28;20033;-79
2021/05/12 11:44:45;;;;;;;3.08;0.70;;;;;;;;;;5097351;28;20068;-79
2021/05/12 11:47:11;;;;;;;0.77;0.70;;;;;;;;;;5097571;28;20056;-79
2021/05/12 11:49:39;;;;;;;0.52;0.52;;;;;;;;;;5084055;28;20028;-78
2021/05/12 11:52:06;;;;;;;0.88;0.88;;;;;;;;;;5085794;28;20021;-79
2021/05/12 11:54:32;;;;;;;0.60;0.60;;;;;;;;;;5076806;28;20032;-79
2021/05/12 11:56:59;;;;;;;1.50;1.13;;;;;;;;;;5075579;28;20033;-79
2021/05/12 11:59:25;;;;;;;0.60;0.60;;;;;;;;;;5096035;28;20028;-79
2021/05/12 12:01:57;;;;;;;1.10;0.63;;;;;;;;;;5094256;28;20037;-78
2021/05/12 12:04:28;;;;;;;1.90;0.70;;;;;;;;;;5087607;28;20051;-78
2021/05/12 12:06:54;;;;;;;0.75;0.50;;;;;;;;;;5078399;28;20024;-79
2021/05/12 12:09:21;;;;;;;0.70;0.50;;;;;;;;;;5077270;28;20025;-78
2021/05/12 12:11:48;;;;;;;0.57;0.52;;;;;;;;;;5077172;28;20029;-79
2021/05/12 12:14:14;;;;;;;0.68;0.38;;;;;;;;;;5086076;28;20062;-79
2021/05/12 12:16:41;;;;;;;0.55;0.50;;;;;;;;;;5088382;28;20036;-79
2021/05/12 12:19:11;;;;;;;0.80;0.65;;;;;;;;;;5083813;28;20031;-81
2021/05/12 12:21:38;;;;;;;0.88;0.70;;;;;;;;;;5092025;28;20016;-80
2021/05/12 12:24:09;;;;;;;0.73;0.73;;;;;;;;;;5081399;28;20068;-77
2021/05/12 12:26:41;;;;;;;0.68;0.60;;;;;;;;;;5078590;28;20025;-77
2021/05/12 12:29:07;;;;;;;3.08;0.98;;;;;;;;;;5074455;28;20073;-79
2021/05/12 12:31:37;;;;;;;0.60;0.60;;;;;;;;;;5076144;28;20060;-79
2021/05/12 12:34:26;;;;;;;3.80;0.70;;;;;;;;;;5087081;28;20108;-78
2021/05/12 12:37:20;;;;;;;0.85;0.60;;;;;;;;;;5083382;28;20037;-79
2021/05/12 12:39:57;;;;;;;0.50;0.50;;;;;;;;;;5081692;28;20021;-78
2021/05/12 12:42:28;;;;;;;1.30;0.75;;;;;;;;;;5075176;28;20028;-78
2021/05/12 12:44:55;;;;;;;0.50;0.50;;;;;;;;;;5070437;28;20551;-79
2021/05/12 12:47:22;;;;;;;0.40;0.40;;;;;;;;;;5068060;28;20025;-78
2021/05/12 12:49:53;;;;;;;1.95;0.40;;;;;;;;;;5078121;28;20052;-78
2021/05/12 12:52:26;;;;;;;0.82;0.70;;;;;;;;;;5078980;28;20024;-79
2021/05/12 12:57:23;;;;;;;0.70;0.70;;;;;;;;;;5074942;28;20021;-80
2021/05/12 13:00:03;;;;;;;4.22;0.90;;;;;;;;;;5075451;28;20354;-78
2021/05/12 13:02:29;;;;;;;0.77;0.77;;;;;;;;;;5076689;28;20054;-77
2021/05/12 13:05:14;;;;;;;1.02;0.55;;;;;;;;;;5078354;28;20426;-78
2021/05/12 13:07:40;;;;;;;0.63;0.52;;;;;;;;;;5088220;28;20047;-79
2021/05/12 13:10:26;;;;;;;1.63;1.25;;;;;;;;;;5087182;28;20028;-78
2021/05/12 13:12:52;;;;;;;0.73;0.70;;;;;;;;;;5075357;28;20056;-78
2021/05/12 13:15:25;;;;;;;0.47;0.47;;;;;;;;;;5081272;28;20093;-78
2021/05/12 13:17:54;;;;;;;0.57;0.57;;;;;;;;;;5080734;28;20089;-77
2021/05/12 13:20:21;;;;;;;0.80;0.80;;;;;;;;;;5080050;28;20120;-78
2021/05/12 13:23:22;;;;;;;0.63;0.63;;;;;;;;;;5074883;28;20021;-77
2021/05/12 13:25:50;;;;;;;1.50;1.00;;;;;;;;;;5043404;28;20587;-78
2021/05/12 13:28:18;;;;;;;1.65;1.45;;;;;;;;;;5062037;28;20049;-79
2021/05/12 13:30:45;;;;;;;0.80;0.80;;;;;;;;;;5075039;28;20032;-78
2021/05/12 13:33:11;;;;;;;2.42;1.50;;;;;;;;;;5077447;28;20077;-79
2021/05/12 13:35:37;;;;;;;1.15;1.05;;;;;;;;;;5090889;28;20488;-77
2021/05/12 13:38:04;;;;;;;3.50;1.10;;;;;;;;;;5080904;28;20048;-78
2021/05/12 13:40:30;;;;;;;1.83;1.50;;;;;;;;;;5082999;28;20001;-78
2021/05/12 13:42:57;;;;;;;1.65;1.30;;;;;;;;;;5075148;28;20552;-78
2021/05/12 13:45:23;;;;;;;2.92;1.88;;;;;;;;;;5074147;28;20080;-78
2021/05/12 13:47:49;;;;;;;2.40;2.20;;;;;;;;;;5074450;28;20033;-78
2021/05/12 13:50:25;;;;;;;3.60;2.03;;;;;;;;;;5084313;28;20028;-78
2021/05/12 14:03:14;;;;;;;3.95;2.63;;;;;;;;;;5060350;28;20044;-76
2021/05/12 14:05:41;;;;;;;3.78;2.28;;;;;;;;;;5075130;28;20130;-77
2021/05/12 14:08:07;;;;;;;2.90;2.50;;;;;;;;;;5069240;28;20047;-76
2021/05/12 14:10:36;;;;;;;3.13;2.70;;;;;;;;;;5076855;28;20108;-77
2021/05/12 14:13:09;;;;;;;2.72;2.53;;;;;;;;;;5062746;28;20031;-77
2021/05/12 14:18:17;;;;;;;4.47;2.78;;;;;;;;;;5074120;28;20135;-78
2021/05/12 14:20:43;;;;;;;3.55;2.60;;;;;;;;;;5071894;28;20112;-78
2021/05/12 14:23:09;;;;;;;3.65;2.75;;;;;;;;;;5076247;28;20029;-78
2021/05/12 14:25:35;;;;;;;3.08;2.75;;;;;;;;;;5076381;28;20063;-79
2021/05/12 14:28:02;;;;;;;2.58;2.30;;;;;;;;;;5058104;28;20028;-77
2021/05/12 14:30:34;;;;;;;3.28;2.83;;;;;;;;;;5061027;28;20021;-78
2021/05/12 14:33:00;;;;;;;3.72;3.05;;;;;;;;;;5079423;28;20047;-77
2021/05/12 14:35:26;;;;;;;4.45;3.08;;;;;;;;;;5080664;28;20017;-80
2021/05/12 14:37:58;;;;;;;3.13;2.67;;;;;;;;;;5082031;28;20028;-78
2021/05/12 14:40:26;;;;;;;4.28;3.00;;;;;;;;;;5069805;28;20029;-79
2021/05/12 14:42:52;;;;;;;3.58;3.22;;;;;;;;;;5088591;28;20043;-79
2021/05/12 14:45:18;;;;;;;2.65;2.45;;;;;;;;;;5088520;28;20028;-79
2021/05/12 14:47:44;;;;;;;4.00;2.70;;;;;;;;;;5076702;28;20075;-79
2021/05/12 14:50:12;;;;;;;2.95;2.75;;;;;;;;;;5074279;28;20088;-79
2021/05/12 14:52:43;;;;;;;3.33;3.03;;;;;;;;;;5089669;28;20028;-79
2021/05/12 15:03:13;;;;;;;4.13;3.25;;;;;;;;;;5089997;28;20094;-78
2021/05/12 15:08:18;;;;;;;3.85;3.40;;;;;;;;;;5076970;28;20111;-79
2021/05/12 15:10:44;;;;;;;3.97;3.45;;;;;;;;;;5068580;28;20017;-79
2021/05/12 15:13:10;;;;;;;5.68;4.25;;;;;;;;;;5082238;28;20113;-79
2021/05/12 15:15:36;;;;;;;4.45;3.55;;;;;;;;;;5082774;28;20059;-79
2021/05/12 15:18:05;;;;;;;3.40;3.10;;;;;;;;;;5068557;28;20025;-79